Time;durP1;ratioP1;P1;durP2;ratioP2;P2;SDS_P1;SDS_P2;PMS_P1;PMS_P2;Temp;Humidity;BMP_temperature;BMP_pressure;BME280_temperature;BME280_humidity;BME280_pressure;Samples;Min_cycle;Max_cycle;Signal;HPM_P1;HPM_P2
2022/03/05 00:00:44;;;;;;;;;38.33;32.67;;;;;11.71;60.90;101388.06;5063705;28;45517;-74
2022/03/05 00:03:11;;;;;;;;;44.33;35.67;;;;;11.74;60.94;101382.19;5059408;28;45313;-79
2022/03/05 00:05:36;;;;;;;;;45.00;36.67;;;;;11.75;60.42;101378.38;5019632;28;1209242;-74
2022/03/05 00:08:03;;;;;;;;;48.67;37.67;;;;;11.82;60.60;101379.25;5045005;28;45878;-79
2022/03/05 00:10:28;;;;;;;;;46.33;37.00;;;;;11.80;60.44;101367.63;5068292;28;45619;-79
2022/03/05 00:12:54;;;;;;;;;48.50;38.25;;;;;11.82;60.36;101368.25;5061717;28;45445;-74
2022/03/05 00:15:20;;;;;;;;;45.00;35.67;;;;;11.83;60.31;101377.38;5075654;28;45834;-73
2022/03/05 00:17:49;;;;;;;;;45.67;37.00;;;;;11.81;60.54;101376.72;5061338;28;45886;-74
2022/03/05 00:20:15;;;;;;;;;42.67;35.67;;;;;11.78;61.10;101377.97;5083405;28;46935;-74
2022/03/05 00:22:40;;;;;;;;;47.67;35.00;;;;;11.79;60.77;101367.81;5087100;28;45760;-73
2022/03/05 00:25:06;;;;;;;;;50.75;37.75;;;;;11.81;60.75;101376.72;5089634;28;45318;-79
2022/03/05 00:27:32;;;;;;;;;47.33;38.67;;;;;11.71;60.33;101359.75;5087063;28;45398;-74
2022/03/05 00:29:58;;;;;;;;;52.50;38.50;;;;;11.79;60.53;101376.91;5084351;28;45515;-81
2022/03/05 00:32:23;;;;;;;;;45.00;35.33;;;;;11.72;60.55;101362.31;5086439;28;45376;-79
2022/03/05 00:34:49;;;;;;;;;48.67;35.00;;;;;11.79;60.99;101379.66;5090453;28;45272;-77
2022/03/05 00:37:15;;;;;;;;;48.50;38.25;;;;;11.73;60.31;101363.97;5082984;28;45386;-73
2022/03/05 00:39:41;;;;;;;;;43.33;36.00;;;;;11.73;60.86;101377.72;5086909;28;46225;-78
2022/03/05 00:42:07;;;;;;;;;49.33;38.33;;;;;11.72;61.02;101380.66;5051832;28;46393;-79
2022/03/05 00:44:32;;;;;;;;;49.25;39.75;;;;;11.69;60.65;101372.84;5065147;28;45886;-80
2022/03/05 00:46:58;;;;;;;;;50.67;37.00;;;;;11.68;61.05;101382.13;5059823;28;45387;-76
2022/03/05 00:49:24;;;;;;;;;51.67;36.33;;;;;11.64;61.15;101368.78;5062178;28;46358;-74
2022/03/05 00:51:52;;;;;;;;;44.00;36.67;;;;;11.71;60.84;101365.25;5060850;28;45273;-73
2022/03/05 00:54:27;;;;;;;;;46.67;35.67;;;;;11.71;60.72;101360.59;5040608;28;45802;-78
2022/03/05 00:56:52;;;;;;;;;46.33;35.67;;;;;11.75;61.04;101375.63;5050821;28;46316;-79
2022/03/05 00:59:18;;;;;;;;;47.33;37.33;;;;;11.78;60.54;101366.13;5052488;28;45778;-79
2022/03/05 01:01:43;;;;;;;;;49.33;36.67;;;;;11.79;60.84;101367.81;5051326;28;45427;-74
2022/03/05 01:04:09;;;;;;;;;46.67;35.33;;;;;11.78;60.23;101367.00;5051404;28;45811;-79
2022/03/05 01:06:35;;;;;;;;;48.00;37.67;;;;;11.78;60.68;101372.50;5054870;28;45763;-72
2022/03/05 01:09:03;;;;;;;;;38.00;32.33;;;;;11.79;60.08;101365.91;5055961;28;45494;-79
2022/03/05 01:11:28;;;;;;;;;45.00;36.00;;;;;11.74;60.71;101368.44;5055384;28;45802;-79
2022/03/05 01:13:54;;;;;;;;;45.67;33.33;;;;;11.71;60.82;101362.50;5059647;28;45384;-76
2022/03/05 01:16:20;;;;;;;;;48.67;36.00;;;;;11.69;60.76;101361.84;5076470;28;45735;-73
2022/03/05 01:18:46;;;;;;;;;48.00;35.33;;;;;11.64;60.92;101367.94;5076554;28;45794;-79
2022/03/05 01:21:11;;;;;;;;;45.67;34.67;;;;;11.59;61.49;101373.19;5057809;28;45632;-74
2022/03/05 01:23:37;;;;;;;;;39.33;33.33;;;;;11.49;61.33;101363.38;5077744;28;45797;-80
2022/03/05 01:26:03;;;;;;;;;45.00;36.33;;;;;11.49;61.61;101366.13;5059616;28;46497;-80
2022/03/05 01:28:28;;;;;;;;;43.00;32.33;;;;;11.48;61.78;101364.47;5076415;28;45823;-79
2022/03/05 01:30:54;;;;;;;;;43.33;36.00;;;;;11.49;61.44;101365.28;5076134;28;45350;-80
2022/03/05 01:33:20;;;;;;;;;45.33;34.67;;;;;11.48;61.76;101364.47;5076959;28;45830;-80
2022/03/05 01:35:46;;;;;;;;;37.33;32.00;;;;;11.50;61.39;101361.50;5076636;28;45525;-79
2022/03/05 01:38:12;;;;;;;;;35.00;31.33;;;;;11.45;61.79;101359.38;5075935;28;45522;-74
2022/03/05 01:40:41;;;;;;;;;43.33;35.67;;;;;11.52;62.19;101362.16;5075129;28;45702;-79
2022/03/05 01:43:07;;;;;;;;;46.00;36.00;;;;;11.56;61.56;101359.88;5076191;28;45550;-80
2022/03/05 01:45:32;;;;;;;;;44.67;36.00;;;;;11.57;61.86;101372.53;5041025;28;47238;-78
2022/03/05 01:47:59;;;;;;;;;47.33;34.67;;;;;11.58;61.52;101364.09;5057096;28;47776;-80
2022/03/05 01:50:25;;;;;;;;;42.50;35.50;;;;;11.61;61.48;101365.59;5076349;28;45424;-78
2022/03/05 01:52:50;;;;;;;;;52.25;38.50;;;;;11.63;61.20;101368.97;5074442;28;45874;-72
2022/03/05 01:55:19;;;;;;;;;46.67;36.00;;;;;11.64;61.44;101365.19;5075054;28;45781;-73
2022/03/05 01:57:47;;;;;;;;;34.67;30.00;;;;;11.64;61.32;101365.19;5086894;28;46577;-79
2022/03/05 02:00:14;;;;;;;;;46.00;36.00;;;;;11.64;61.23;101370.69;5078998;28;45396;-79
2022/03/05 02:02:41;;;;;;;;;46.67;35.67;;;;;11.67;61.29;101370.28;5057822;28;45419;-80
2022/03/05 02:05:07;;;;;;;;;44.00;32.33;;;;;11.71;60.69;101373.50;5075897;28;45538;-78
2022/03/05 02:08:12;;;;;;;;;44.00;32.33;;;;;11.71;61.41;101374.34;5085990;28;46342;-77
2022/03/05 02:10:37;;;;;;;;;43.00;35.67;;;;;11.68;61.51;101372.00;5082193;28;45459;-79
2022/03/05 02:13:02;;;;;;;;;39.33;34.00;;;;;11.64;61.39;101377.03;5060900;28;45411;-79
2022/03/05 02:15:28;;;;;;;;;43.00;34.00;;;;;11.62;61.28;101367.31;5064859;28;45653;-80
2022/03/05 02:17:53;;;;;;;;;44.00;34.67;;;;;11.62;60.57;101370.06;5054819;28;45408;-80
2022/03/05 02:20:19;;;;;;;;;49.00;36.00;;;;;11.61;61.03;101366.44;5053782;28;45894;-79
2022/03/05 02:22:44;;;;;;;;;49.33;36.00;;;;;11.60;61.19;101358.41;5035600;28;45394;-78
2022/03/05 02:25:10;;;;;;;;;44.33;33.00;;;;;11.60;60.94;101359.25;5054063;28;45833;-73
2022/03/05 02:27:35;;;;;;;;;44.67;37.00;;;;;11.60;60.84;101363.88;5053942;28;46160;-73
2022/03/05 02:30:01;;;;;;;;;49.25;35.25;;;;;11.61;60.69;101366.44;5053399;28;45399;-73
2022/03/05 02:32:26;;;;;;;;;48.33;38.33;;;;;11.62;61.00;101359.91;5053395;28;45737;-81
2022/03/05 02:34:52;;;;;;;;;46.75;36.50;;;;;11.60;60.98;101358.41;5053725;28;45880;-73
2022/03/05 02:37:18;;;;;;;;;47.25;38.25;;;;;11.60;61.08;101359.25;5053935;28;46065;-80
2022/03/05 02:39:44;;;;;;;;;49.00;38.75;;;;;11.61;61.21;101355.44;5053214;28;45784;-75
2022/03/05 02:42:12;;;;;;;;;50.50;39.00;;;;;11.55;61.22;101352.66;5072681;28;45426;-74
2022/03/05 02:44:37;;;;;;;;;47.75;38.50;;;;;11.52;61.67;101359.41;5056957;28;45874;-79
2022/03/05 02:47:03;;;;;;;;;47.25;35.50;;;;;11.44;61.33;101343.09;5073564;28;45422;-73
2022/03/05 02:49:29;;;;;;;;;51.75;38.75;;;;;11.45;61.74;101353.00;5055526;28;45392;-79
2022/03/05 02:51:54;;;;;;;;;51.25;39.00;;;;;11.42;61.72;101346.03;5055783;28;45823;-73
2022/03/05 02:54:26;;;;;;;;;50.25;39.25;;;;;11.46;62.33;101352.81;5055784;28;45979;-79
2022/03/05 02:57:26;;;;;;;;;54.75;39.25;;;;;11.47;61.67;101345.44;5084486;28;46920;-78
2022/03/05 02:59:52;;;;;;;;;50.75;37.00;;;;;11.44;61.71;101335.69;5067039;28;45620;-80
2022/03/05 03:02:18;;;;;;;;;50.50;39.00;;;;;11.44;61.49;101337.59;5073035;28;44768;-79
2022/03/05 03:04:43;;;;;;;;;48.50;37.75;;;;;11.42;61.54;101328.69;5072781;28;44894;-78
2022/03/05 03:07:08;;;;;;;;;47.50;35.25;;;;;11.43;61.80;101342.22;5087237;28;46843;-78
2022/03/05 03:09:34;;;;;;;;;49.50;39.75;;;;;11.40;61.87;101331.63;5089761;28;45414;-77
2022/03/05 03:12:03;;;;;;;;;48.25;39.00;;;;;11.40;61.84;101337.13;5091039;28;45833;-74
2022/03/05 03:14:29;;;;;;;;;49.00;36.75;;;;;11.38;62.19;101336.50;5072941;28;45836;-79
2022/03/05 03:16:54;;;;;;;;;49.00;38.25;;;;;11.38;62.18;101335.66;5073336;28;47226;-77
2022/03/05 03:19:20;;;;;;;;;52.75;36.00;;;;;11.35;62.12;101334.16;5088613;28;45324;-72
2022/03/05 03:21:46;;;;;;;;;49.00;36.00;;;;;11.36;61.91;101332.25;5088233;28;45221;-73
2022/03/05 03:24:11;;;;;;;;;53.25;37.75;;;;;11.31;62.01;101336.44;5085671;28;45698;-78
2022/03/05 03:26:37;;;;;;;;;47.75;35.25;;;;;11.23;62.09;101330.25;5088353;28;46262;-70
2022/03/05 03:29:02;;;;;;;;;48.25;36.25;;;;;11.12;62.65;101321.50;5091069;28;44899;-78
2022/03/05 03:31:28;;;;;;;;;52.00;36.25;;;;;11.09;62.76;101329.28;5094011;28;44784;-72
2022/03/05 03:33:53;;;;;;;;;50.75;37.25;;;;;11.02;62.56;101326.50;5091256;28;44904;-78
2022/03/05 03:36:19;;;;;;;;;49.75;37.50;;;;;11.01;62.64;101327.53;5071727;28;47082;-78
2022/03/05 03:38:44;;;;;;;;;47.00;36.00;;;;;11.02;63.28;101340.22;5078297;28;45333;-72
2022/03/05 03:41:10;;;;;;;;;47.00;36.00;;;;;10.98;63.03;101344.38;5084388;28;45404;-79
2022/03/05 03:43:35;;;;;;;;;45.50;36.75;;;;;10.94;63.50;101337.59;5082989;28;45424;-76
2022/03/05 03:46:01;;;;;;;;;50.50;37.00;;;;;10.85;63.24;101338.78;5083708;28;46238;-73
2022/03/05 03:48:26;;;;;;;;;40.00;30.67;;;;;10.76;62.69;101341.66;5057982;28;45485;-78
2022/03/05 03:50:52;;;;;;;;;47.75;34.50;;;;;10.70;63.34;101342.44;5071774;28;45723;-79
2022/03/05 03:53:17;;;;;;;;;48.00;36.00;;;;;10.64;63.39;101340.44;5060459;28;45294;-80
2022/03/05 03:55:43;;;;;;;;;36.00;32.67;;;;;10.54;62.55;101337.22;5057838;28;46321;-74
2022/03/05 03:58:08;;;;;;;;;33.00;31.33;;;;;10.51;62.59;101343.91;5040632;28;45405;-71
2022/03/05 04:00:34;;;;;;;;;39.33;31.00;;;;;10.47;62.85;101333.53;5053893;28;45361;-74
2022/03/05 04:02:59;;;;;;;;;44.67;33.33;;;;;10.41;63.24;101340.63;5053423;28;45794;-74
2022/03/05 04:05:25;;;;;;;;;47.00;35.00;;;;;10.34;63.30;101332.31;5051917;28;46508;-72
2022/03/05 04:10:35;;;;;;;;;41.50;33.00;;;;;10.30;63.17;101343.81;5054481;28;45767;-79
2022/03/05 04:13:00;;;;;;;;;38.33;29.67;;;;;10.32;63.20;101350.00;5036902;28;47163;-80
2022/03/05 04:15:26;;;;;;;;;41.33;33.00;;;;;10.29;63.23;101339.41;5071013;28;46871;-81
2022/03/05 04:17:51;;;;;;;;;44.67;36.00;;;;;10.22;63.70;101347.53;5074863;28;45373;-78
2022/03/05 04:20:17;;;;;;;;;34.33;30.33;;;;;10.16;63.37;101346.41;5073877;28;45296;-78
2022/03/05 04:22:43;;;;;;;;;37.33;32.33;;;;;10.12;63.73;101355.19;5056319;28;46013;-76
2022/03/05 04:25:09;;;;;;;;;32.00;27.67;;;;;10.04;64.62;101351.56;5077804;28;45665;-81
2022/03/05 04:27:35;;;;;;;;;29.67;26.33;;;;;9.98;63.99;101349.53;5077745;28;44779;-82
2022/03/05 04:30:00;;;;;;;;;38.00;31.00;;;;;9.94;64.50;101347.38;5074995;28;45548;-73
2022/03/05 04:32:26;;;;;;;;;36.67;31.33;;;;;9.95;65.12;101347.19;5073296;28;45532;-78
2022/03/05 04:34:51;;;;;;;;;38.00;31.00;;;;;9.93;64.36;101349.28;5055019;28;46989;-77
2022/03/05 04:37:16;;;;;;;;;37.00;31.00;;;;;9.94;64.38;101358.34;5073728;28;45774;-77
2022/03/05 04:39:42;;;;;;;;;32.00;30.67;;;;;9.91;64.55;101356.84;5053334;28;45512;-72
2022/03/05 04:42:07;;;;;;;;;39.67;32.33;;;;;9.87;64.71;101358.25;5053757;28;45377;-74
2022/03/05 04:44:33;;;;;;;;;37.67;30.33;;;;;9.82;64.73;101363.44;5052200;28;45340;-72
2022/03/05 04:46:59;;;;;;;;;38.33;32.33;;;;;9.80;64.94;101360.88;5052621;28;45789;-73
2022/03/05 04:49:24;;;;;;;;;32.00;29.33;;;;;9.78;64.95;101353.91;5033768;28;45397;-73
2022/03/05 04:51:50;;;;;;;;;32.00;27.33;;;;;9.78;64.94;101348.44;5052770;28;45320;-77
2022/03/05 04:54:16;;;;;;;;;36.33;28.67;;;;;9.79;65.17;101370.16;5035419;28;48203;-79
2022/03/05 04:56:41;;;;;;;;;41.00;30.00;;;;;9.75;65.09;101365.25;5052026;28;45867;-72
2022/03/05 04:59:07;;;;;;;;;32.00;28.67;;;;;9.75;65.41;101349.66;5034855;28;45645;-72
2022/03/05 05:01:32;;;;;;;;;36.67;33.67;;;;;9.74;65.65;101356.16;5033758;28;45515;-73
2022/03/05 05:04:07;;;;;;;;;45.33;34.00;;;;;9.72;65.35;101355.50;5036184;28;45808;-72
2022/03/05 05:06:36;;;;;;;;;38.00;34.00;;;;;9.71;65.70;101365.63;5041183;28;45648;-72
2022/03/05 05:09:28;;;;;;;;;37.33;33.33;;;;;9.66;65.75;101357.13;5060986;28;45517;-74
2022/03/05 05:11:53;;;;;;;;;35.00;31.67;;;;;9.65;66.08;101360.88;4974969;28;45516;-79
2022/03/05 05:14:19;;;;;;;;;32.67;31.67;;;;;9.65;65.71;101369.09;5044505;28;45817;-78
2022/03/05 05:16:44;;;;;;;;;35.67;32.00;;;;;9.59;66.00;101369.84;5055772;28;45419;-78
2022/03/05 05:19:25;;;;;;;;;37.50;29.50;;;;;9.58;65.94;101376.38;5054669;28;45418;-72
2022/03/05 05:22:11;;;;;;;;;39.33;34.00;;;;;9.56;66.48;101375.69;5052823;28;45715;-79
2022/03/05 05:24:38;;;;;;;;;29.67;25.67;;;;;9.52;66.38;101372.50;5038624;28;46737;-77
2022/03/05 05:27:05;;;;;;;;;41.00;33.00;;;;;9.56;66.38;101372.97;5073755;28;45708;-78
2022/03/05 05:29:31;;;;;;;;;42.67;34.00;;;;;9.57;66.13;101380.16;5055082;28;45512;-77
2022/03/05 05:31:57;;;;;;;;;39.00;32.67;;;;;9.57;66.39;101380.16;5071714;28;45477;-72
2022/03/05 05:34:23;;;;;;;;;34.33;29.33;;;;;9.54;66.34;101369.56;5071720;28;45891;-73
2022/03/05 05:36:49;;;;;;;;;43.67;34.67;;;;;9.57;66.22;101382.88;5071682;28;45648;-73
2022/03/05 05:39:15;;;;;;;;;48.00;35.33;;;;;9.59;65.88;101383.53;5073573;28;45980;-73
2022/03/05 05:41:41;;;;;;;;;41.67;33.33;;;;;9.56;66.55;101381.19;5057904;28;45998;-71
2022/03/05 05:44:09;;;;;;;;;42.25;34.50;;;;;9.59;65.84;101385.44;5051971;28;45563;-71
2022/03/05 05:46:35;;;;;;;;;41.75;33.25;;;;;9.56;66.26;101389.41;5054596;28;45791;-72
2022/03/05 05:49:00;;;;;;;;;42.33;32.67;;;;;9.56;65.85;101394.03;5055730;28;45411;-79
2022/03/05 05:51:28;;;;;;;;;43.50;34.75;;;;;9.53;66.31;101389.75;5038831;28;45715;-73
2022/03/05 05:53:54;;;;;;;;;36.33;32.00;;;;;9.53;66.24;101400.72;5040083;28;45421;-77
2022/03/05 05:56:20;;;;;;;;;47.00;34.00;;;;;9.46;66.10;101377.84;5058473;28;45375;-77
2022/03/05 05:58:47;;;;;;;;;44.00;33.00;;;;;9.53;65.99;101395.25;5058842;28;45680;-72
2022/03/05 06:01:12;;;;;;;;;27.67;21.33;;;;;9.52;66.02;101382.56;5056758;28;45596;-72
2022/03/05 06:03:38;;;;;;;;;47.50;36.25;;;;;9.46;66.25;101394.28;5056881;28;46214;-78
2022/03/05 06:06:03;;;;;;;;;38.00;32.00;;;;;9.47;66.36;101391.34;5060776;28;45532;-78
2022/03/05 06:08:29;;;;;;;;;40.00;33.33;;;;;9.49;66.61;101396.66;5059687;28;45754;-79
2022/03/05 06:10:55;;;;;;;;;40.00;31.33;;;;;9.48;66.83;101395.81;5059402;28;45553;-78
2022/03/05 06:13:21;;;;;;;;;42.33;32.00;;;;;9.48;66.76;101392.22;5059458;28;46435;-78
2022/03/05 06:15:47;;;;;;;;;43.00;32.33;;;;;9.49;66.45;101396.66;5079495;28;45441;-78
2022/03/05 06:18:12;;;;;;;;;41.67;34.00;;;;;9.48;66.10;101393.06;5061363;28;45447;-78
2022/03/05 06:20:38;;;;;;;;;47.75;31.25;;;;;9.47;66.33;101385.88;5061448;28;45351;-77
2022/03/05 06:23:07;;;;;;;;;37.67;32.00;;;;;9.48;66.02;101384.00;5079201;28;45701;-74
2022/03/05 06:25:33;;;;;;;;;42.67;33.67;;;;;9.56;66.25;101399.50;5075141;28;45544;-72
2022/03/05 06:27:58;;;;;;;;;36.33;31.33;;;;;9.54;65.99;101395.06;5079935;28;45467;-78
2022/03/05 06:30:24;;;;;;;;;41.50;34.50;;;;;9.54;66.08;101388.75;5079524;28;45760;-78
2022/03/05 06:32:50;;;;;;;;;43.33;33.67;;;;;9.59;66.32;101389.00;5080213;28;45507;-78
2022/03/05 06:35:15;;;;;;;;;42.33;32.33;;;;;9.62;65.98;101390.53;5078048;28;45750;-73
2022/03/05 06:37:41;;;;;;;;;42.75;34.00;;;;;9.64;65.64;101400.28;5079483;28;45791;-78
2022/03/05 06:40:10;;;;;;;;;43.00;32.00;;;;;9.65;65.95;101395.66;5076887;28;46013;-78
2022/03/05 06:42:36;;;;;;;;;39.67;32.67;;;;;9.70;65.67;101396.78;5059885;28;47181;-78
2022/03/05 06:45:03;;;;;;;;;43.25;33.75;;;;;9.71;65.42;101412.19;5046904;28;45424;-73
2022/03/05 06:47:30;;;;;;;;;42.50;34.00;;;;;9.66;65.87;101402.84;5065980;28;45716;-79
2022/03/05 06:49:56;;;;;;;;;48.00;33.75;;;;;9.67;65.55;101418.19;5060114;28;45697;-79
2022/03/05 06:52:21;;;;;;;;;39.00;34.33;;;;;9.68;65.42;101415.28;5060275;28;45685;-78
2022/03/05 06:54:47;;;;;;;;;41.67;34.33;;;;;9.69;65.65;101422.47;5060179;28;45776;-79
2022/03/05 06:57:12;;;;;;;;;49.50;36.25;;;;;9.69;65.67;101421.63;5040796;28;45912;-78
2022/03/05 06:59:37;;;;;;;;;46.67;34.00;;;;;9.65;65.51;101420.28;5059768;28;45440;-73
2022/03/05 07:02:03;;;;;;;;;39.67;27.67;;;;;9.65;65.46;101428.50;5057395;28;45959;-79
2022/03/05 07:04:28;;;;;;;;;45.25;35.50;;;;;9.64;65.67;101427.66;5058756;28;45709;-79
2022/03/05 07:06:54;;;;;;;;;48.25;37.75;;;;;9.66;65.68;101428.31;5055586;28;45914;-76
2022/03/05 07:09:19;;;;;;;;;51.00;39.50;;;;;9.69;65.45;101432.59;5054945;28;45444;-73
2022/03/05 07:11:45;;;;;;;;;52.75;39.00;;;;;9.69;65.71;101433.41;5058604;28;46645;-78
2022/03/05 07:14:10;;;;;;;;;47.50;36.75;;;;;9.68;65.67;101428.97;5061293;28;45741;-78
2022/03/05 07:16:36;;;;;;;;;49.00;38.00;;;;;9.66;65.21;101438.44;5044112;28;45338;-80
2022/03/05 07:19:02;;;;;;;;;55.25;42.00;;;;;9.62;65.77;101446.16;5060685;28;45332;-81
2022/03/05 07:21:27;;;;;;;;;49.25;41.25;;;;;9.64;65.54;101441.34;5062215;28;46081;-80
2022/03/05 07:23:53;;;;;;;;;52.50;40.25;;;;;9.64;65.61;101443.22;5041638;28;45960;-77
2022/03/05 07:26:18;;;;;;;;;56.50;40.75;;;;;9.64;65.22;101444.09;5059296;28;45478;-73
2022/03/05 07:28:45;;;;;;;;;59.25;42.75;;;;;9.64;65.84;101441.34;5056297;28;45605;-73
2022/03/05 07:31:10;;;;;;;;;47.00;38.00;;;;;9.70;65.02;101445.22;5055883;28;46805;-79
2022/03/05 07:33:36;;;;;;;;;53.50;41.00;;;;;9.71;65.27;101450.53;5058161;28;45441;-75
2022/03/05 07:36:04;;;;;;;;;45.25;35.50;;;;;9.76;65.36;101449.09;5055707;28;45738;-74
2022/03/05 07:38:33;;;;;;;;;50.75;38.25;;;;;9.74;65.09;101443.81;5038315;28;47057;-73
2022/03/05 07:40:58;;;;;;;;;52.50;41.00;;;;;9.80;64.76;101455.94;5053948;28;45825;-79
2022/03/05 07:43:24;;;;;;;;;51.50;40.50;;;;;9.84;65.05;101451.78;5053130;28;45797;-79
2022/03/05 07:45:50;;;;;;;;;49.75;37.00;;;;;9.90;64.95;101457.34;5052695;28;45801;-77
2022/03/05 07:48:19;;;;;;;;;49.50;39.50;;;;;9.97;64.16;101462.94;5055365;28;45663;-78
2022/03/05 07:50:46;;;;;;;;;55.75;40.75;;;;;10.02;64.58;101465.97;5055796;28;47122;-77
2022/03/05 07:53:12;;;;;;;;;55.75;40.50;;;;;10.07;64.38;101462.66;5053889;28;45718;-74
2022/03/05 07:55:38;;;;;;;;;53.00;40.25;;;;;10.02;64.10;101460.47;5053997;28;45996;-77
2022/03/05 07:58:03;;;;;;;;;48.50;38.50;;;;;10.07;63.89;101469.00;5054993;28;45440;-73
2022/03/05 08:00:29;;;;;;;;;47.00;38.75;;;;;10.11;64.19;101474.13;5053703;28;45745;-80
2022/03/05 08:02:54;;;;;;;;;52.50;40.00;;;;;10.13;64.14;101472.88;5037317;28;45548;-78
2022/03/05 08:05:20;;;;;;;;;49.75;39.00;;;;;10.19;63.97;101472.09;5054386;28;45695;-75
2022/03/05 08:07:46;;;;;;;;;52.50;41.00;;;;;10.20;63.56;101465.59;5052326;28;46599;-74
2022/03/05 08:10:11;;;;;;;;;53.25;41.00;;;;;10.25;63.66;101476.88;5051608;28;47999;-73
2022/03/05 08:12:37;;;;;;;;;46.50;37.00;;;;;10.30;63.66;101475.41;5054497;28;45430;-77
2022/03/05 08:15:04;;;;;;;;;66.00;45.50;;;;;10.32;63.53;101476.94;5067926;28;45544;-73
2022/03/05 08:17:30;;;;;;;;;53.50;40.25;;;;;10.39;63.15;101480.66;5055474;28;45674;-74
2022/03/05 08:19:55;;;;;;;;;49.25;40.50;;;;;10.47;62.65;101482.47;5054750;28;46804;-79
2022/03/05 08:22:21;;;;;;;;;49.25;38.50;;;;;10.53;62.76;101480.84;5056447;28;45416;-79
2022/03/05 08:24:47;;;;;;;;;48.75;37.50;;;;;10.61;62.28;101469.75;5059609;28;45806;-79
2022/03/05 08:27:13;;;;;;;;;45.00;36.50;;;;;10.68;62.19;101476.19;5083916;28;45396;-80
2022/03/05 08:29:38;;;;;;;;;52.50;37.75;;;;;10.76;61.90;101465.13;5073353;28;46618;-73
2022/03/05 08:32:04;;;;;;;;;48.50;36.50;;;;;10.86;61.15;101467.53;5071898;28;45844;-76
2022/03/05 08:34:29;;;;;;;;;50.00;37.00;;;;;10.96;61.14;101475.47;5053111;28;45426;-79
2022/03/05 08:36:55;;;;;;;;;61.00;48.25;;;;;11.04;60.87;101475.34;5072182;28;45611;-79
2022/03/05 08:39:20;;;;;;;;;58.50;44.25;;;;;11.13;60.59;101474.16;5072341;28;46340;-78
2022/03/05 08:41:46;;;;;;;;;49.50;37.25;;;;;11.19;60.26;101456.06;5038497;28;45521;-78
2022/03/05 08:44:11;;;;;;;;;49.75;39.00;;;;;11.36;60.27;101477.78;5034210;28;45851;-81
2022/03/05 08:46:37;;;;;;;;;43.00;34.25;;;;;11.47;59.52;101469.88;5051912;28;45732;-75
2022/03/05 08:49:03;;;;;;;;;46.75;37.00;;;;;11.55;59.49;101463.38;5051732;28;45915;-75
2022/03/05 08:51:28;;;;;;;;;50.50;37.25;;;;;11.70;58.90;101474.28;5032892;28;45521;-78
2022/03/05 08:53:53;;;;;;;;;49.75;36.00;;;;;11.84;58.66;101475.25;5033050;28;45389;-75
2022/03/05 08:56:19;;;;;;;;;48.00;38.00;;;;;11.94;58.19;101464.78;5050936;28;45533;-76
2022/03/05 08:58:44;;;;;;;;;40.33;33.00;;;;;12.05;57.86;101476.28;5050858;28;45400;-80
2022/03/05 09:01:10;;;;;;;;;47.00;36.00;;;;;12.13;57.38;101476.97;5049938;28;45719;-79
2022/03/05 09:03:35;;;;;;;;;49.00;35.00;;;;;12.26;57.89;101478.13;5051023;28;45752;-74
2022/03/05 09:06:01;;;;;;;;;43.00;35.67;;;;;12.38;57.31;101476.50;5051083;28;45734;-79
2022/03/05 09:08:26;;;;;;;;;48.67;36.67;;;;;12.54;57.20;101473.44;5050887;28;46513;-74
2022/03/05 09:10:52;;;;;;;;;42.00;35.67;;;;;12.71;56.06;101478.59;5051450;28;45707;-72
2022/03/05 09:13:17;;;;;;;;;44.67;33.67;;;;;12.75;56.29;101451.47;5051602;28;45716;-72
2022/03/05 09:15:42;;;;;;;;;49.67;36.33;;;;;13.05;55.24;101468.50;5076934;28;45502;-74
2022/03/05 09:18:40;;;;;;;;;45.67;35.67;;;;;13.27;54.87;101473.88;5069116;28;47201;-79
2022/03/05 09:21:07;;;;;;;;;36.67;31.00;;;;;13.41;54.39;101478.38;5073595;28;44766;-80
2022/03/05 09:23:32;;;;;;;;;47.67;35.00;;;;;13.52;54.57;101469.50;5088236;28;45387;-79
2022/03/05 09:25:58;;;;;;;;;52.00;40.00;;;;;13.72;54.14;101476.91;5087570;28;44864;-77
2022/03/05 09:28:23;;;;;;;;;42.33;33.67;;;;;13.88;53.56;101476.50;5082854;28;45458;-77
2022/03/05 09:30:49;;;;;;;;;41.33;33.00;;;;;14.11;53.36;101470.50;5071876;28;45312;-79
2022/03/05 09:33:14;;;;;;;;;47.33;37.67;;;;;14.36;52.25;101475.34;5071120;28;45567;-78
2022/03/05 09:35:41;;;;;;;;;44.33;36.67;;;;;14.67;51.57;101484.84;5090471;28;45474;-77
2022/03/05 09:38:06;;;;;;;;;51.33;38.67;;;;;15.01;50.66;101477.25;5071968;28;45503;-79
2022/03/05 09:40:33;;;;;;;;;46.33;36.67;;;;;15.31;49.76;101463.69;5091191;28;45755;-78
2022/03/05 09:43:01;;;;;;;;;50.00;40.33;;;;;15.83;49.01;101473.75;5084231;28;45502;-74
2022/03/05 09:45:26;;;;;;;;;51.00;38.67;;;;;16.22;48.12;101471.66;5082636;28;46320;-78
2022/03/05 09:47:57;;;;;;;;;46.00;36.67;;;;;16.63;46.33;101475.69;5086532;28;46574;-80
2022/03/05 09:50:28;;;;;;;;;54.00;42.00;;;;;17.31;45.89;101470.97;5084679;28;45738;-74
2022/03/05 09:52:54;;;;;;;;;44.33;30.00;;;;;17.97;44.36;101473.78;5081326;28;45492;-72
2022/03/05 09:55:20;;;;;;;;;39.33;33.67;;;;;18.87;42.44;101478.03;5087414;28;45517;-74
2022/03/05 09:57:45;;;;;;;;;44.33;33.67;;;;;19.32;41.21;101467.22;5062931;28;46594;-74
2022/03/05 10:00:11;;;;;;;;;34.33;29.00;;;;;19.52;40.46;101464.81;5084111;28;45732;-79
2022/03/05 10:02:38;;;;;;;;;45.67;36.00;;;;;19.70;39.91;101476.75;5082114;28;45408;-74
2022/03/05 10:05:13;;;;;;;;;47.00;37.00;;;;;20.03;40.16;101469.53;5064933;28;45540;-75
2022/03/05 10:07:57;;;;;;;;;40.67;35.33;;;;;20.23;38.97;101460.66;5085423;28;45308;-79
2022/03/05 10:10:22;;;;;;;;;42.67;34.00;;;;;20.61;38.05;101462.59;5086015;28;45284;-73
2022/03/05 10:12:48;;;;;;;;;38.00;32.33;;;;;21.11;36.90;101474.63;5088767;28;45326;-79
2022/03/05 10:15:21;;;;;;;;;42.67;35.67;;;;;21.81;36.48;101469.19;5087741;28;45277;-79
2022/03/05 10:17:56;;;;;;;;;44.67;36.00;;;;;22.42;35.46;101462.34;5089207;28;46235;-78
2022/03/05 10:20:31;;;;;;;;;39.00;32.00;;;;;22.87;34.50;101462.81;5086645;28;45450;-78
2022/03/05 10:23:01;;;;;;;;;47.00;34.33;;;;;23.13;33.92;101471.31;5064546;28;45370;-76
2022/03/05 10:25:53;;;;;;;;;44.00;35.67;;;;;23.16;34.27;101470.78;5082783;28;45479;-74
2022/03/05 10:28:24;;;;;;;;;50.00;35.33;;;;;23.20;33.38;101469.09;5076246;28;47115;-74
2022/03/05 10:30:55;;;;;;;;;43.00;35.00;;;;;23.34;33.25;101456.28;5066578;28;45374;-78
2022/03/05 10:33:36;;;;;;;;;38.67;34.00;;;;;23.61;33.11;101461.59;5088444;28;45451;-77
2022/03/05 10:36:05;;;;;;;;;44.67;36.33;;;;;23.79;32.45;101462.19;5083784;28;45341;-78
2022/03/05 10:39:02;;;;;;;;;46.67;33.33;;;;;24.30;32.43;101466.91;5067390;28;45628;-72
2022/03/05 10:41:46;;;;;;;;;42.33;35.67;;;;;24.67;31.24;101462.84;5061229;28;45929;-73
2022/03/05 10:44:21;;;;;;;;;42.67;37.33;;;;;25.02;29.71;101456.25;5066110;28;45418;-74
2022/03/05 10:47:03;;;;;;;;;45.33;37.67;;;;;24.79;30.17;101452.16;5065539;28;45368;-75
2022/03/05 10:49:42;;;;;;;;;42.33;33.67;;;;;24.88;30.29;101459.97;5044698;28;47000;-74
2022/03/05 10:52:18;;;;;;;;;35.33;32.67;;;;;24.96;29.93;101446.19;5067578;28;44800;-80
2022/03/05 10:54:44;;;;;;;;;38.33;34.67;;;;;24.95;29.74;101454.88;5064996;28;45755;-74
2022/03/05 10:57:22;;;;;;;;;39.67;33.33;;;;;24.92;29.70;101461.06;5060227;28;45569;-73
2022/03/05 10:59:49;;;;;;;;;36.67;34.00;;;;;24.80;29.17;101456.63;5048997;28;45398;-79
2022/03/05 11:02:17;;;;;;;;;39.33;35.00;;;;;24.67;28.90;101455.31;5063381;28;45403;-74
2022/03/05 11:04:44;;;;;;;;;36.33;30.67;;;;;24.45;29.61;101447.22;5062603;28;45372;-74
2022/03/05 11:07:16;;;;;;;;;43.33;34.67;;;;;24.06;29.94;101453.50;5043676;28;45412;-74
2022/03/05 11:09:42;;;;;;;;;36.00;33.00;;;;;23.67;30.34;101448.44;5066823;28;45391;-79
2022/03/05 11:12:09;;;;;;;;;41.33;35.00;;;;;23.20;31.16;101444.75;5050937;28;45506;-75
2022/03/05 11:14:38;;;;;;;;;41.00;35.33;;;;;22.86;31.02;101453.59;5048637;28;45349;-78